Time;durP1;ratioP1;P1;durP2;ratioP2;P2;SDS_P1;SDS_P2;PMS_P1;PMS_P2;Temp;Humidity;BMP_temperature;BMP_pressure;BME280_temperature;BME280_humidity;BME280_pressure;Samples;Min_cycle;Max_cycle;Signal;HPM_P1;HPM_P2
2022/01/12 00:03:41;;;;;;;12.43;8.98;;;;;;;;;;12649168;28;20396;-75
2022/01/12 00:09:43;;;;;;;12.37;10.70;;;;;;;;;;12649123;28;20032;-74
2022/01/12 00:15:44;;;;;;;13.95;11.23;;;;;;;;;;12648064;28;20814;-74
2022/01/12 00:21:46;;;;;;;11.80;10.45;;;;;;;;;;12630207;28;20047;-75
2022/01/12 00:34:23;;;;;;;14.60;11.77;;;;;;;;;;12652611;28;20048;-75
2022/01/12 00:40:24;;;;;;;12.68;11.38;;;;;;;;;;12647347;28;20032;-75
2022/01/12 00:46:30;;;;;;;9.65;8.10;;;;;;;;;;12646942;28;20051;-74
2022/01/12 00:52:32;;;;;;;10.85;9.73;;;;;;;;;;12645825;28;20039;-74
2022/01/12 00:58:34;;;;;;;11.07;9.88;;;;;;;;;;12645328;28;20075;-74
2022/01/12 01:04:36;;;;;;;11.32;9.02;;;;;;;;;;12644875;28;20386;-75
2022/01/12 01:17:17;;;;;;;10.18;7.95;;;;;;;;;;12644057;28;20520;-75
2022/01/12 01:29:27;;;;;;;11.98;9.43;;;;;;;;;;12645215;28;20024;-75
2022/01/12 01:35:30;;;;;;;22.88;15.73;;;;;;;;;;12643843;28;20044;-75
2022/01/12 01:41:32;;;;;;;37.13;23.40;;;;;;;;;;12644631;28;20028;-74
2022/01/12 01:53:55;;;;;;;22.77;16.75;;;;;;;;;;12642981;28;20485;-74
2022/01/12 02:00:00;;;;;;;18.15;12.43;;;;;;;;;;12626294;28;20032;-74
2022/01/12 02:06:07;;;;;;;17.40;13.80;;;;;;;;;;12625923;28;20032;-74
2022/01/12 02:12:09;;;;;;;16.52;11.65;;;;;;;;;;12625898;28;20492;-75
2022/01/12 02:18:30;;;;;;;15.03;11.40;;;;;;;;;;12641718;28;20048;-74
2022/01/12 02:56:30;;;;;;;9.48;6.82;;;;;;;;;;12652271;28;20044;-75
2022/01/12 03:02:39;;;;;;;11.85;7.60;;;;;;;;;;12650821;28;20062;-74
2022/01/12 03:08:40;;;;;;;18.15;13.20;;;;;;;;;;12651476;28;20392;-75
2022/01/12 03:14:42;;;;;;;12.18;8.77;;;;;;;;;;12633072;28;20048;-75
2022/01/12 03:20:45;;;;;;;12.87;8.93;;;;;;;;;;12649911;28;20031;-75
2022/01/12 03:26:48;;;;;;;9.20;6.72;;;;;;;;;;12649636;28;20063;-75
2022/01/12 03:33:05;;;;;;;;;;;;;;;;;;12649708;28;20028;-75
2022/01/12 03:39:10;;;;;;;18.10;13.63;;;;;;;;;;12649291;28;19916;-74
2022/01/12 03:45:12;;;;;;;16.25;11.75;;;;;;;;;;12632768;28;20036;-74
2022/01/12 03:51:15;;;;;;;12.98;10.20;;;;;;;;;;12648189;28;20028;-75
2022/01/12 03:57:19;;;;;;;11.00;8.00;;;;;;;;;;12648119;28;20040;-74
2022/01/12 04:03:21;;;;;;;11.73;8.73;;;;;;;;;;12649020;28;20416;-75
2022/01/12 04:09:23;;;;;;;13.07;9.13;;;;;;;;;;12647505;28;20039;-75
2022/01/12 04:15:25;;;;;;;11.80;9.52;;;;;;;;;;12648318;28;20660;-75
2022/01/12 04:21:29;;;;;;;10.20;7.32;;;;;;;;;;12647464;28;20044;-74
2022/01/12 04:27:32;;;;;;;13.13;9.00;;;;;;;;;;12630487;28;20473;-75
2022/01/12 04:33:35;;;;;;;10.02;7.68;;;;;;;;;;12647207;28;20044;-75
2022/01/12 04:39:37;;;;;;;10.35;8.13;;;;;;;;;;12646024;28;20054;-75
2022/01/12 04:45:56;;;;;;;15.55;11.43;;;;;;;;;;12646574;28;20036;-75
2022/01/12 04:51:58;;;;;;;10.50;8.63;;;;;;;;;;12646934;28;20366;-75
2022/01/12 04:58:01;;;;;;;14.00;9.80;;;;;;;;;;12644472;28;20044;-74
2022/01/12 05:16:31;;;;;;;12.02;8.90;;;;;;;;;;12645361;28;20420;-75
2022/01/12 05:22:35;;;;;;;11.43;7.75;;;;;;;;;;12644449;28;20039;-74
2022/01/12 05:28:38;;;;;;;15.32;12.45;;;;;;;;;;12645916;28;20043;-75
2022/01/12 05:34:41;;;;;;;12.07;8.65;;;;;;;;;;12643881;28;20396;-75
2022/01/12 05:40:45;;;;;;;;;;;;;;;;;;12643724;28;20032;-75
2022/01/12 05:46:49;;;;;;;12.57;9.95;;;;;;;;;;12643867;28;19912;-75
2022/01/12 05:52:55;;;;;;;16.23;12.98;;;;;;;;;;12643122;28;20469;-75
2022/01/12 05:58:57;;;;;;;13.38;9.68;;;;;;;;;;12642855;28;20044;-75
2022/01/12 06:05:00;;;;;;;10.68;8.40;;;;;;;;;;12642699;28;20121;-75
2022/01/12 06:11:02;;;;;;;14.40;11.23;;;;;;;;;;12642165;28;20043;-75
2022/01/12 06:17:05;;;;;;;24.95;19.23;;;;;;;;;;12641411;28;20051;-75
2022/01/12 06:23:08;;;;;;;;;;;;;;;;;;12642288;28;20488;-75
2022/01/12 06:35:13;;;;;;;16.33;10.95;;;;;;;;;;12621836;28;20047;-75
2022/01/12 06:41:15;;;;;;;14.75;10.77;;;;;;;;;;12638770;28;20591;-75
2022/01/12 06:47:18;;;;;;;;;;;;;;;;;;12639869;28;20044;-75
2022/01/12 06:57:27;;;;;;;12.98;10.10;;;;;;;;;;12564296;28;20486;-75
2022/01/12 07:03:29;;;;;;;14.97;11.30;;;;;;;;;;12515771;28;20071;-75
2022/01/12 07:09:34;;;;;;;16.00;10.45;;;;;;;;;;12513419;28;20276;-75
2022/01/12 07:15:41;;;;;;;9.98;7.65;;;;;;;;;;12506517;28;20060;-75
2022/01/12 07:21:43;;;;;;;15.50;9.10;;;;;;;;;;12490188;28;20038;-75
2022/01/12 07:27:45;;;;;;;21.65;15.65;;;;;;;;;;12506165;28;20040;-75
2022/01/12 07:33:47;;;;;;;14.10;11.13;;;;;;;;;;12503568;28;20410;-75
2022/01/12 07:39:49;;;;;;;13.60;10.95;;;;;;;;;;12513336;28;20040;-75
2022/01/12 07:46:54;;;;;;;11.82;9.88;;;;;;;;;;12529266;28;20820;-74
2022/01/12 07:52:56;;;;;;;11.47;9.50;;;;;;;;;;12506035;28;20769;-74
2022/01/12 07:58:58;;;;;;;11.25;8.70;;;;;;;;;;12484151;28;20330;-73
2022/01/12 08:05:00;;;;;;;;;;;;;;;;;;12473920;28;20387;-72
2022/01/12 08:11:02;;;;;;;14.57;13.00;;;;;;;;;;12483440;28;19916;-72
2022/01/12 08:17:04;;;;;;;14.43;12.93;;;;;;;;;;12487572;28;20061;-73
2022/01/12 08:23:06;;;;;;;13.90;11.95;;;;;;;;;;12476163;28;20049;-75
2022/01/12 08:29:11;;;;;;;12.82;11.27;;;;;;;;;;12479085;28;20038;-74
2022/01/12 08:35:13;;;;;;;17.55;15.85;;;;;;;;;;12469960;28;20026;-74
2022/01/12 08:41:15;;;;;;;17.70;15.90;;;;;;;;;;12508403;23;20054;-93
2022/01/12 08:47:18;;;;;;;14.45;12.98;;;;;;;;;;12495404;28;20037;-92
2022/01/12 08:53:20;;;;;;;15.52;14.07;;;;;;;;;;12483781;28;20490;-91
2022/01/12 08:59:22;;;;;;;16.33;14.63;;;;;;;;;;12453468;28;20489;-92
2022/01/12 09:05:24;;;;;;;16.23;14.57;;;;;;;;;;12447610;28;20049;-92
2022/01/12 09:11:27;;;;;;;18.67;16.67;;;;;;;;;;12460953;28;20036;-92
2022/01/12 09:17:30;;;;;;;19.30;16.15;;;;;;;;;;12439081;28;20037;-93
2022/01/12 09:23:33;;;;;;;16.42;14.73;;;;;;;;;;12455559;28;20541;-93
2022/01/12 09:29:36;;;;;;;13.00;11.70;;;;;;;;;;12448011;28;20030;-92
2022/01/12 09:35:38;;;;;;;;;;;;;;;;;;12466292;28;20029;-91
2022/01/12 09:41:40;;;;;;;14.60;13.00;;;;;;;;;;12463549;28;19928;-94
2022/01/12 09:47:42;;;;;;;14.00;12.47;;;;;;;;;;12447744;28;20044;-92
2022/01/12 09:53:44;;;;;;;11.93;10.70;;;;;;;;;;12458855;28;20034;-92
2022/01/12 09:59:48;;;;;;;11.27;10.07;;;;;;;;;;12437696;28;20038;-93
2022/01/12 10:05:50;;;;;;;10.52;9.52;;;;;;;;;;12459724;28;20054;-94
2022/01/12 10:11:53;;;;;;;10.87;9.77;;;;;;;;;;12437484;28;20026;-91
2022/01/12 10:18:01;;;;;;;12.38;11.18;;;;;;;;;;12448337;28;20030;-93
2022/01/12 10:24:04;;;;;;;10.73;9.73;;;;;;;;;;12446139;28;20042;-91
2022/01/12 10:30:06;;;;;;;10.48;9.48;;;;;;;;;;12450480;28;20394;-92
2022/01/12 10:36:10;;;;;;;11.63;10.43;;;;;;;;;;12432990;28;20494;-91
2022/01/12 10:42:13;;;;;;;10.73;9.70;;;;;;;;;;12461042;28;20053;-91
2022/01/12 10:48:15;;;;;;;10.10;9.10;;;;;;;;;;12444480;28;20387;-93
2022/01/12 10:54:17;;;;;;;9.75;8.77;;;;;;;;;;12427453;28;20491;-92
2022/01/12 11:00:24;;;;;;;9.57;7.88;;;;;;;;;;12450254;28;20053;-92
2022/01/12 11:06:26;;;;;;;8.73;7.93;;;;;;;;;;12455884;28;20387;-93
2022/01/12 11:12:29;;;;;;;9.20;8.30;;;;;;;;;;12452650;28;20042;-94
2022/01/12 11:18:32;;;;;;;8.82;7.93;;;;;;;;;;12435873;28;20048;-93
2022/01/12 11:24:35;;;;;;;6.28;5.68;;;;;;;;;;12449360;28;20037;-91
2022/01/12 11:30:39;;;;;;;6.88;5.78;;;;;;;;;;12444725;28;20037;-93
2022/01/12 11:36:41;;;;;;;9.48;7.32;;;;;;;;;;12452157;28;20037;-94
2022/01/12 11:42:44;;;;;;;7.40;6.65;;;;;;;;;;12434027;28;20274;-93
2022/01/12 11:48:48;;;;;;;14.97;12.63;;;;;;;;;;12464581;28;20034;-92
2022/01/12 11:54:53;;;;;;;11.05;9.45;;;;;;;;;;12444471;28;20479;-94
2022/01/12 12:00:56;;;;;;;12.27;10.98;;;;;;;;;;12454447;28;20041;-94
2022/01/12 12:07:11;;;;;;;11.57;10.43;;;;;;;;;;12437047;28;20038;-94
2022/01/12 12:13:14;;;;;;;8.25;7.45;;;;;;;;;;12457460;28;20029;-93
2022/01/12 12:19:15;;;;;;;7.47;6.63;;;;;;;;;;12441782;28;20038;-93
2022/01/12 12:25:19;;;;;;;7.22;6.53;;;;;;;;;;12439276;28;20042;-93
2022/01/12 12:31:22;;;;;;;7.20;6.50;;;;;;;;;;12476415;28;20048;-92
2022/01/12 12:37:26;;;;;;;7.40;6.57;;;;;;;;;;12447879;28;20034;-92
2022/01/12 12:43:34;;;;;;;6.95;6.32;;;;;;;;;;12463223;28;20053;-93
2022/01/12 12:49:46;;;;;;;5.53;4.95;;;;;;;;;;12448214;28;20041;-92
2022/01/12 12:55:48;;;;;;;5.80;5.20;;;;;;;;;;12451749;28;20370;-93
2022/01/12 13:01:50;;;;;;;6.80;6.10;;;;;;;;;;12458279;28;20057;-93
2022/01/12 13:07:55;;;;;;;4.50;4.10;;;;;;;;;;12454493;28;20045;-93
2022/01/12 13:13:58;;;;;;;4.82;4.32;;;;;;;;;;12473689;28;20040;-93
2022/01/12 13:26:08;;;;;;;6.10;5.22;;;;;;;;;;12451149;28;20046;-94
2022/01/12 13:32:11;;;;;;;5.05;4.63;;;;;;;;;;12480743;28;20034;-95
2022/01/12 13:38:13;;;;;;;4.88;4.05;;;;;;;;;;12482700;28;20089;-94
2022/01/12 13:44:17;;;;;;;5.40;4.60;;;;;;;;;;12493766;28;20026;-94
2022/01/12 13:50:19;;;;;;;5.18;4.50;;;;;;;;;;12510390;28;20053;-93
2022/01/12 13:56:33;;;;;;;4.68;4.25;;;;;;;;;;12491120;28;20054;-95
2022/01/12 14:02:42;;;;;;;4.07;3.30;;;;;;;;;;12475734;28;20053;-94
2022/01/12 14:08:54;;;;;;;5.75;5.20;;;;;;;;;;12451026;28;20050;-94
2022/01/12 14:14:57;;;;;;;5.90;4.70;;;;;;;;;;12477962;28;20044;-96
2022/01/12 14:21:01;;;;;;;7.20;5.43;;;;;;;;;;12460223;28;20490;-94
2022/01/12 14:27:03;;;;;;;7.13;5.47;;;;;;;;;;12450024;28;20054;-94
2022/01/12 14:33:05;;;;;;;6.47;4.77;;;;;;;;;;12465004;28;20387;-94
2022/01/12 14:39:08;;;;;;;4.75;4.25;;;;;;;;;;12462906;28;20054;-94
2022/01/12 14:45:11;;;;;;;;;;;;;;;;;;12465508;28;20072;-94
2022/01/12 14:51:13;;;;;;;8.57;7.53;;;;;;;;;;12467052;28;19909;-94
2022/01/12 14:57:18;;;;;;;5.90;5.30;;;;;;;;;;12464582;28;20033;-93
2022/01/12 15:03:22;;;;;;;23.02;15.65;;;;;;;;;;12461033;28;20056;-93
2022/01/12 15:09:43;;;;;;;22.40;18.05;;;;;;;;;;12461295;28;20486;-91
2022/01/12 15:15:49;;;;;;;13.90;10.45;;;;;;;;;;12458793;28;20041;-93
2022/01/12 15:21:51;;;;;;;8.25;6.78;;;;;;;;;;12471117;28;20057;-94
2022/01/12 15:27:53;;;;;;;6.20;5.60;;;;;;;;;;12440133;28;20046;-94
2022/01/12 15:33:55;;;;;;;5.57;5.07;;;;;;;;;;12439681;28;20046;-93
2022/01/12 15:39:58;;;;;;;5.32;4.68;;;;;;;;;;12455886;28;20408;-93
2022/01/12 15:46:00;;;;;;;5.10;4.60;;;;;;;;;;12440904;28;20050;-94
2022/01/12 15:52:02;;;;;;;4.50;4.07;;;;;;;;;;12455579;28;20051;-94
2022/01/12 15:58:04;;;;;;;9.00;5.40;;;;;;;;;;12455673;28;20029;-94
2022/01/12 16:04:09;;;;;;;34.40;8.83;;;;;;;;;;12471468;28;20042;-94
2022/01/12 16:10:11;;;;;;;47.97;12.38;;;;;;;;;;12462708;28;20038;-94
2022/01/12 16:16:17;;;;;;;16.40;6.55;;;;;;;;;;12477857;28;20042;-95
2022/01/12 16:22:32;;;;;;;40.13;10.70;;;;;;;;;;12469961;28;20487;-94
2022/01/12 16:28:49;;;;;;;37.80;11.20;;;;;;;;;;12452720;28;20049;-94
2022/01/12 16:34:58;;;;;;;36.50;11.07;;;;;;;;;;12450921;28;20033;-94
2022/01/12 16:41:03;;;;;;;28.30;9.23;;;;;;;;;;12455672;28;20056;-94
2022/01/12 16:47:06;;;;;;;15.48;7.80;;;;;;;;;;12476744;28;20062;-94
2022/01/12 16:53:08;;;;;;;12.90;7.90;;;;;;;;;;12457109;28;20060;-94
2022/01/12 16:59:10;;;;;;;11.32;7.40;;;;;;;;;;12454307;28;20048;-94
2022/01/12 17:05:13;;;;;;;7.67;6.90;;;;;;;;;;12479794;28;20042;-94
2022/01/12 17:11:16;;;;;;;9.83;8.83;;;;;;;;;;12496437;28;20028;-92
2022/01/12 17:17:30;;;;;;;11.40;9.15;;;;;;;;;;12514699;28;20046;-92
